createdAt,value
2018-08-23T00:01:31.619Z,60.10
2018-08-23T00:04:06.905Z,60.10
2018-08-23T00:06:35.868Z,60.10
2018-08-23T00:09:06.948Z,60.20
2018-08-23T00:11:39.429Z,60.30
2018-08-23T00:14:08.115Z,60.40
2018-08-23T00:16:43.166Z,60.50
2018-08-23T00:19:11.961Z,60.50
2018-08-23T00:21:44.387Z,60.50
2018-08-23T00:24:15.613Z,60.50
2018-08-23T00:26:45.532Z,60.50
2018-08-23T00:29:19.696Z,60.40
2018-08-23T00:31:52.866Z,60.50
2018-08-23T00:34:23.882Z,61.40
2018-08-23T00:36:52.582Z,60.50
2018-08-23T00:39:21.022Z,60.50
2018-08-23T00:41:55.178Z,60.50
2018-08-23T00:44:23.653Z,60.60
2018-08-23T00:46:54.250Z,60.70
2018-08-23T00:49:25.391Z,60.70
2018-08-23T00:51:53.823Z,60.60
2018-08-23T00:54:22.353Z,60.60
2018-08-23T00:56:51.199Z,60.70
2018-08-23T00:59:19.623Z,60.70
2018-08-23T01:01:56.059Z,60.70
2018-08-23T01:04:24.458Z,60.70
2018-08-23T01:06:52.891Z,60.70
2018-08-23T01:09:22.116Z,60.70
2018-08-23T01:11:50.535Z,61.50
2018-08-23T01:14:19.047Z,60.70
2018-08-23T01:16:58.903Z,60.70
2018-08-23T01:19:32.647Z,60.80
2018-08-23T01:22:01.105Z,60.90
2018-08-23T01:24:31.216Z,61.10
2018-08-23T01:26:59.666Z,61.20
2018-08-23T01:29:30.105Z,61.30
2018-08-23T01:32:07.752Z,61.30
2018-08-23T01:34:36.301Z,61.30
2018-08-23T01:37:04.706Z,61.30
2018-08-23T01:39:34.056Z,61.50
2018-08-23T01:42:02.525Z,61.50
2018-08-23T01:44:33.967Z,61.50
2018-08-23T01:47:02.659Z,61.70
2018-08-23T01:49:31.110Z,61.70
2018-08-23T01:51:59.569Z,61.80
2018-08-23T01:54:28.046Z,61.70
2018-08-23T01:56:56.475Z,61.70
2018-08-23T01:59:24.900Z,61.60
2018-08-23T02:01:53.328Z,61.50
2018-08-23T02:04:21.783Z,61.50
2018-08-23T02:06:50.205Z,61.40
2018-08-23T02:09:18.624Z,61.30
2018-08-23T02:11:47.312Z,61.30
2018-08-23T02:14:15.739Z,61.30
2018-08-23T02:16:50.854Z,61.50
2018-08-23T02:19:19.563Z,61.20
2018-08-23T02:21:48.013Z,61.10
2018-08-23T02:24:17.840Z,61.10
2018-08-23T02:26:46.254Z,61.40
2018-08-23T02:29:15.697Z,61.00
2018-08-23T02:31:44.142Z,60.90
2018-08-23T02:34:12.592Z,60.80
2018-08-23T02:36:41.001Z,60.80
2018-08-23T02:39:09.525Z,60.90
2018-08-23T02:41:38.047Z,60.70
2018-08-23T02:44:06.470Z,60.60
2018-08-23T02:46:34.904Z,60.60
2018-08-23T02:49:03.303Z,60.50
2018-08-23T02:51:40.933Z,60.50
2018-08-23T02:54:14.748Z,60.30
2018-08-23T02:56:48.591Z,60.30
2018-08-23T02:59:17.094Z,60.30
2018-08-23T03:01:46.546Z,60.20
2018-08-23T03:04:22.294Z,60.30
2018-08-23T03:06:57.004Z,60.40
2018-08-23T03:09:33.335Z,61.10
2018-08-23T03:12:18.526Z,60.40
2018-08-23T03:14:47.388Z,60.40
2018-08-23T03:17:17.912Z,60.30
2018-08-23T03:20:11.510Z,60.40
2018-08-23T03:22:40.483Z,60.30
2018-08-23T03:25:10.391Z,60.30
2018-08-23T03:27:38.843Z,60.20
2018-08-23T03:30:08.334Z,60.30
2018-08-23T03:32:36.775Z,60.30
2018-08-23T03:35:05.246Z,60.20
2018-08-23T03:37:33.673Z,60.20
2018-08-23T03:40:02.096Z,60.10
2018-08-23T03:42:30.556Z,60.00
2018-08-23T03:44:59.630Z,60.10
2018-08-23T03:47:36.675Z,60.00
2018-08-23T03:50:05.631Z,60.00
2018-08-23T03:52:40.434Z,60.10
2018-08-23T03:55:10.145Z,60.00
2018-08-23T03:57:43.983Z,60.00
2018-08-23T04:00:12.490Z,60.00
2018-08-23T04:02:40.910Z,60.00
2018-08-23T04:05:14.771Z,60.00
2018-08-23T04:07:44.224Z,60.00
2018-08-23T04:10:12.732Z,59.90
2018-08-23T04:12:42.474Z,59.90
2018-08-23T04:15:29.816Z,59.90
2018-08-23T04:17:58.222Z,59.90
2018-08-23T04:20:26.688Z,59.90
2018-08-23T04:22:55.178Z,60.00
2018-08-23T04:25:23.573Z,59.90
2018-08-23T04:27:52.015Z,60.00
2018-08-23T04:30:20.603Z,60.00
2018-08-23T04:32:49.706Z,60.90
2018-08-23T04:35:23.616Z,60.10
2018-08-23T04:37:52.401Z,60.00
2018-08-23T04:40:20.965Z,60.10
2018-08-23T04:42:49.418Z,60.20
2018-08-23T04:45:33.680Z,60.20
2018-08-23T04:48:05.095Z,60.40
2018-08-23T04:50:33.560Z,60.40
2018-08-23T04:53:02.175Z,60.20
2018-08-23T04:55:30.641Z,60.20
2018-08-23T04:57:59.936Z,60.40
2018-08-23T05:00:29.173Z,60.30
2018-08-23T05:02:57.718Z,60.50
2018-08-23T05:05:26.294Z,60.40
2018-08-23T05:07:54.751Z,60.40
2018-08-23T05:10:23.164Z,60.40
2018-08-23T05:12:51.750Z,60.40
2018-08-23T05:15:20.236Z,61.00
2018-08-23T05:17:48.689Z,60.30
2018-08-23T05:20:17.140Z,60.20
2018-08-23T05:22:51.645Z,60.00
2018-08-23T05:25:22.031Z,60.00
2018-08-23T05:28:07.380Z,60.00
2018-08-23T05:30:35.872Z,60.00
2018-08-23T05:33:09.655Z,59.90
2018-08-23T05:35:38.086Z,60.00
2018-08-23T05:38:07.886Z,60.00
2018-08-23T05:40:42.316Z,60.20
2018-08-23T05:43:11.123Z,60.10
2018-08-23T05:45:45.132Z,60.10
2018-08-23T05:48:21.603Z,60.10
2018-08-23T05:50:50.190Z,60.10
2018-08-23T05:53:19.357Z,60.20
2018-08-23T05:55:51.546Z,60.30
2018-08-23T05:58:23.392Z,60.10
2018-08-23T06:00:51.988Z,60.10
2018-08-23T06:03:20.428Z,60.30
2018-08-23T06:05:49.483Z,60.20
2018-08-23T06:08:17.956Z,60.40
2018-08-23T06:10:48.558Z,60.40
2018-08-23T06:13:17.877Z,60.60
2018-08-23T06:15:51.840Z,61.40
2018-08-23T06:18:21.031Z,60.60
2018-08-23T06:20:49.475Z,60.80
2018-08-23T06:23:18.405Z,60.70
2018-08-23T06:25:47.479Z,61.00
2018-08-23T06:28:19.172Z,60.80
2018-08-23T06:30:47.646Z,61.20
2018-08-23T06:33:33.634Z,61.00
2018-08-23T06:36:02.531Z,61.10
2018-08-23T06:38:31.822Z,61.20
2018-08-23T06:41:03.294Z,61.60
2018-08-23T06:43:32.491Z,61.80
2018-08-23T06:46:01.776Z,62.40
2018-08-23T06:48:30.599Z,62.80
2018-08-23T06:51:00.084Z,62.90
2018-08-23T06:53:34.554Z,63.20
2018-08-23T06:56:02.975Z,63.40
2018-08-23T06:58:31.396Z,63.60
2018-08-23T07:01:01.885Z,63.70
2018-08-23T07:03:30.308Z,63.80
2018-08-23T07:05:58.708Z,64.10
2018-08-23T07:08:27.179Z,64.10
2018-08-23T07:11:07.655Z,64.20
2018-08-23T07:13:36.285Z,64.50
2018-08-23T07:16:04.722Z,64.70
2018-08-23T07:18:33.227Z,64.70
2018-08-23T07:21:01.728Z,64.60
2018-08-23T07:23:30.777Z,64.60
2018-08-23T07:25:59.298Z,64.70
2018-08-23T07:28:27.749Z,64.60
2018-08-23T07:30:56.167Z,64.40
2018-08-23T07:33:24.641Z,64.90
2018-08-23T07:36:03.216Z,64.50
2018-08-23T07:38:31.667Z,64.00
2018-08-23T07:41:00.076Z,63.80
2018-08-23T07:43:28.513Z,63.50
2018-08-23T07:45:56.924Z,63.40
2018-08-23T07:48:25.429Z,63.00
2018-08-23T07:50:53.840Z,63.00
2018-08-23T07:53:22.371Z,63.00
2018-08-23T07:55:50.711Z,62.90
2018-08-23T07:58:19.157Z,62.80
2018-08-23T08:00:47.628Z,62.80
2018-08-23T08:03:16.072Z,62.90
2018-08-23T08:05:45.884Z,63.00
2018-08-23T08:08:14.579Z,63.00
2018-08-23T08:10:45.096Z,62.80
2018-08-23T08:13:13.530Z,62.90
2018-08-23T08:15:42.155Z,62.90
2018-08-23T08:18:17.534Z,62.80
2018-08-23T08:21:02.464Z,62.60
2018-08-23T08:23:31.497Z,62.70
2018-08-23T08:25:59.905Z,62.60
2018-08-23T08:28:28.317Z,62.40
2018-08-23T08:30:58.716Z,62.20
2018-08-23T08:33:31.609Z,62.10
2018-08-23T08:36:01.294Z,62.20
2018-08-23T08:38:30.180Z,62.10
2018-08-23T08:40:58.595Z,62.20
2018-08-23T08:43:27.474Z,62.20
2018-08-23T08:45:57.276Z,62.40
2018-08-23T08:48:33.155Z,62.20
2018-08-23T08:51:19.262Z,62.20
2018-08-23T08:53:47.949Z,62.20
2018-08-23T08:56:19.318Z,62.20
2018-08-23T08:58:47.823Z,62.20
2018-08-23T09:01:16.257Z,62.30
2018-08-23T09:03:44.655Z,62.30
2018-08-23T09:06:17.299Z,62.40
2018-08-23T09:08:45.687Z,62.60
2018-08-23T09:11:14.117Z,62.70
2018-08-23T09:13:46.435Z,62.60
2018-08-23T09:16:15.132Z,62.40
2018-08-23T09:18:46.257Z,62.20
2018-08-23T09:21:14.643Z,62.10
2018-08-23T09:23:43.087Z,62.00
2018-08-23T09:26:11.512Z,62.20
2018-08-23T09:28:39.924Z,62.20
2018-08-23T09:31:08.323Z,62.20
2018-08-23T09:33:36.727Z,62.40
2018-08-23T09:36:05.289Z,62.50
2018-08-23T09:38:33.763Z,62.40
2018-08-23T09:41:02.185Z,62.40
2018-08-23T09:43:30.668Z,62.30
2018-08-23T09:45:59.099Z,62.20
2018-08-23T09:48:27.516Z,62.20
2018-08-23T09:50:56.086Z,62.20
2018-08-23T09:53:25.789Z,62.40
2018-08-23T09:55:55.722Z,62.40
2018-08-23T09:58:29.672Z,62.40
2018-08-23T10:01:03.560Z,62.20
2018-08-23T10:03:37.297Z,62.20
2018-08-23T10:06:11.006Z,62.20
2018-08-23T10:08:44.897Z,62.10
2018-08-23T10:11:19.401Z,62.10
2018-08-23T10:13:52.987Z,62.00
2018-08-23T10:16:26.947Z,62.00
2018-08-23T10:18:57.688Z,62.30
2018-08-23T10:21:31.476Z,62.20
2018-08-23T10:24:06.231Z,62.20
2018-08-23T10:26:34.788Z,62.20
2018-08-23T10:29:03.167Z,62.30
2018-08-23T10:31:31.605Z,62.30
2018-08-23T10:34:00.029Z,62.30
2018-08-23T10:36:28.446Z,62.40
2018-08-23T10:38:56.848Z,63.20
2018-08-23T10:41:25.265Z,62.40
2018-08-23T10:43:53.660Z,62.40
2018-08-23T10:46:22.096Z,63.30
2018-08-23T10:48:50.505Z,62.20
2018-08-23T10:51:18.897Z,62.10
2018-08-23T10:53:47.303Z,62.00
2018-08-23T10:56:15.847Z,62.00
2018-08-23T10:58:44.236Z,62.00
2018-08-23T11:01:12.719Z,61.70
2018-08-23T11:03:41.277Z,61.60
2018-08-23T11:06:09.709Z,61.50
2018-08-23T11:08:39.387Z,61.50
2018-08-23T11:11:13.310Z,61.20
2018-08-23T11:13:48.009Z,61.50
2018-08-23T11:16:21.804Z,61.50
2018-08-23T11:18:56.059Z,61.40
2018-08-23T11:21:24.476Z,61.30
2018-08-23T11:23:52.894Z,61.10
2018-08-23T11:26:25.389Z,60.90
2018-08-23T11:28:53.828Z,60.80
2018-08-23T11:31:27.548Z,60.60
2018-08-23T11:33:55.940Z,60.50
2018-08-23T11:36:24.380Z,60.50
2018-08-23T11:38:52.904Z,60.50
2018-08-23T11:41:21.305Z,60.50
2018-08-23T11:43:49.789Z,60.50
2018-08-23T11:46:21.475Z,60.30
2018-08-23T11:48:50.259Z,60.30
2018-08-23T11:51:19.351Z,60.20
2018-08-23T11:53:48.230Z,60.20
2018-08-23T11:56:16.607Z,60.20
2018-08-23T11:58:45.021Z,60.20
2018-08-23T12:01:14.844Z,60.00
2018-08-23T12:03:43.492Z,59.80
2018-08-23T12:06:13.023Z,59.90
2018-08-23T12:08:41.824Z,59.80
2018-08-23T12:11:10.204Z,59.80
2018-08-23T12:13:38.747Z,59.80
2018-08-23T12:16:09.131Z,59.80
2018-08-23T12:18:38.408Z,60.00
2018-08-23T12:21:10.520Z,59.90
2018-08-23T12:23:38.937Z,59.80
2018-08-23T12:26:07.336Z,60.00
2018-08-23T12:28:41.175Z,60.00
2018-08-23T12:31:09.868Z,60.10
2018-08-23T12:33:38.368Z,60.00
2018-08-23T12:36:08.312Z,60.10
2018-08-23T12:38:42.090Z,60.70
2018-08-23T12:41:15.880Z,59.90
2018-08-23T12:43:51.134Z,59.80
2018-08-23T12:55:16.337Z,60.10
2018-08-23T12:57:44.760Z,61.10
2018-08-23T13:00:13.299Z,60.30
2018-08-23T13:02:41.968Z,60.30
2018-08-23T13:05:10.257Z,60.30
2018-08-23T13:07:38.687Z,60.20
2018-08-23T13:10:07.171Z,60.30
2018-08-23T13:12:35.591Z,60.00
2018-08-23T13:15:04.003Z,59.60
2018-08-23T13:17:32.475Z,59.50
2018-08-23T13:20:00.868Z,59.90
2018-08-23T13:22:34.792Z,59.00
2018-08-23T13:25:05.895Z,58.90
2018-08-23T13:27:34.430Z,58.90
2018-08-23T13:30:03.325Z,59.00
2018-08-23T13:32:31.671Z,58.80
2018-08-23T13:35:00.428Z,58.80
2018-08-23T13:37:29.608Z,58.70
2018-08-23T13:39:58.028Z,58.70
2018-08-23T13:42:26.483Z,58.40
2018-08-23T13:44:54.970Z,58.30
2018-08-23T13:47:23.467Z,58.40
2018-08-23T13:49:51.894Z,58.20
2018-08-23T13:52:20.337Z,58.30
2018-08-23T13:54:48.752Z,58.20
2018-08-23T13:57:17.161Z,58.20
2018-08-23T13:59:45.606Z,58.20
2018-08-23T14:02:14.093Z,58.30
2018-08-23T14:04:42.499Z,58.30
2018-08-23T14:07:11.007Z,58.30
2018-08-23T14:09:39.440Z,58.40
2018-08-23T14:12:07.859Z,58.30
2018-08-23T14:14:36.282Z,58.40
2018-08-23T14:17:04.717Z,58.40
2018-08-23T14:19:33.117Z,58.20
2018-08-23T14:22:01.546Z,58.30
2018-08-23T14:24:30.371Z,58.30
2018-08-23T14:26:58.910Z,58.30
2018-08-23T14:29:27.440Z,58.40
2018-08-23T14:31:55.908Z,58.30
2018-08-23T14:34:24.324Z,58.30
2018-08-23T14:36:52.747Z,58.30
2018-08-23T14:39:21.150Z,58.40
2018-08-23T14:41:49.569Z,58.40
2018-08-23T14:44:18.148Z,58.50
2018-08-23T14:46:52.035Z,58.50
2018-08-23T14:49:25.757Z,58.60
2018-08-23T14:51:54.149Z,58.60
2018-08-23T14:54:30.976Z,58.60
2018-08-23T14:57:04.674Z,58.50
2018-08-23T14:59:33.092Z,58.50
2018-08-23T15:02:01.535Z,58.50
2018-08-23T15:04:29.940Z,58.50
2018-08-23T15:06:58.508Z,58.50
2018-08-23T15:09:28.545Z,58.50
2018-08-23T15:11:57.765Z,58.50
2018-08-23T15:14:26.392Z,58.60
2018-08-23T15:16:54.819Z,58.50
2018-08-23T15:19:23.412Z,58.50
2018-08-23T15:21:52.326Z,58.60
2018-08-23T15:24:20.747Z,58.60
2018-08-23T15:26:52.782Z,58.50
2018-08-23T15:29:21.165Z,58.40
2018-08-23T15:31:49.579Z,58.50
2018-08-23T15:34:18.001Z,58.50
2018-08-23T15:36:46.433Z,58.50
2018-08-23T15:39:15.790Z,58.60
2018-08-23T15:41:44.232Z,58.60
2018-08-23T15:44:13.599Z,58.50
2018-08-23T15:46:43.631Z,58.60
2018-08-23T15:49:12.085Z,58.60
2018-08-23T15:51:41.060Z,58.70
2018-08-23T15:54:09.768Z,58.60
2018-08-23T15:56:38.803Z,58.60
2018-08-23T15:59:07.267Z,58.60
2018-08-23T16:01:35.712Z,58.80
2018-08-23T16:04:04.408Z,58.80
2018-08-23T16:06:32.893Z,59.50
2018-08-23T16:09:01.376Z,58.80
2018-08-23T16:11:29.810Z,58.80
2018-08-23T16:13:58.281Z,58.70
2018-08-23T16:16:32.773Z,58.70
2018-08-23T16:19:06.682Z,58.60
2018-08-23T16:21:36.430Z,58.60
2018-08-23T16:24:04.837Z,58.70
2018-08-23T16:26:38.576Z,58.70
2018-08-23T16:29:12.413Z,58.80
2018-08-23T16:31:40.892Z,58.80
2018-08-23T16:34:09.346Z,59.40
2018-08-23T16:36:37.760Z,58.90
2018-08-23T16:39:07.716Z,58.90
2018-08-23T16:41:36.156Z,58.90
2018-08-23T16:44:04.561Z,58.90
2018-08-23T16:46:32.974Z,58.90
2018-08-23T16:49:01.391Z,58.90
2018-08-23T16:51:29.833Z,59.00
2018-08-23T16:53:58.340Z,59.10
2018-08-23T16:56:26.751Z,59.20
2018-08-23T16:58:55.187Z,59.30
2018-08-23T17:01:23.648Z,59.30
2018-08-23T17:03:52.955Z,59.30
2018-08-23T17:06:22.640Z,59.10
2018-08-23T17:08:51.071Z,59.00
2018-08-23T17:11:19.489Z,59.50
2018-08-23T17:13:47.948Z,59.00
2018-08-23T17:16:21.812Z,59.10
2018-08-23T17:18:50.700Z,59.10
2018-08-23T17:21:19.098Z,59.20
2018-08-23T17:23:47.543Z,59.60
2018-08-23T17:26:15.977Z,59.50
2018-08-23T17:28:44.397Z,59.60
2018-08-23T17:31:16.143Z,59.60
2018-08-23T17:33:44.590Z,59.70
2018-08-23T17:36:13.044Z,59.80
2018-08-23T17:38:41.468Z,59.90
2018-08-23T17:41:09.960Z,60.00
2018-08-23T17:43:38.388Z,60.00
2018-08-23T17:46:06.929Z,60.00
2018-08-23T17:48:35.370Z,60.20
2018-08-23T17:51:03.762Z,60.30
2018-08-23T17:53:32.187Z,60.50
2018-08-23T17:56:00.627Z,60.60
2018-08-23T17:58:29.067Z,60.70
2018-08-23T18:00:57.578Z,60.70
2018-08-23T18:03:25.998Z,60.30
2018-08-23T18:05:54.455Z,60.90
2018-08-23T18:08:23.037Z,60.90
2018-08-23T18:10:51.451Z,61.10
2018-08-23T18:13:19.897Z,61.10
2018-08-23T18:15:53.708Z,61.10
2018-08-23T18:18:22.127Z,61.10
2018-08-23T18:20:50.715Z,61.80
2018-08-23T18:23:19.185Z,60.90
2018-08-23T18:25:47.621Z,61.10
2018-08-23T18:28:16.047Z,61.20
2018-08-23T18:30:44.488Z,61.30
2018-08-23T18:33:13.236Z,61.40
2018-08-23T18:35:41.693Z,61.50
2018-08-23T18:38:10.312Z,61.50
2018-08-23T18:40:38.691Z,61.50
2018-08-23T18:43:07.143Z,61.60
2018-08-23T18:45:35.572Z,61.70
2018-08-23T18:48:03.986Z,62.10
2018-08-23T18:50:32.370Z,62.50
2018-08-23T18:53:00.760Z,63.20
2018-08-23T18:55:29.189Z,63.30
2018-08-23T18:57:57.638Z,64.70
2018-08-23T19:00:26.054Z,64.20
2018-08-23T19:02:54.441Z,64.30
2018-08-23T19:05:22.871Z,64.40
2018-08-23T19:07:51.285Z,64.30
2018-08-23T19:10:19.719Z,63.90
2018-08-23T19:12:48.169Z,63.90
2018-08-23T19:15:20.972Z,63.80
2018-08-23T19:17:49.408Z,63.60
2018-08-23T19:20:17.812Z,63.40
2018-08-23T19:22:46.419Z,63.10
2018-08-23T19:25:14.935Z,63.40
2018-08-23T19:27:43.311Z,63.20
2018-08-23T19:30:11.766Z,63.20
2018-08-23T19:32:40.238Z,63.20
2018-08-23T19:35:12.116Z,63.10
2018-08-23T19:37:40.586Z,63.50
2018-08-23T19:40:08.992Z,64.30
2018-08-23T19:42:41.241Z,64.60
2018-08-23T19:45:09.719Z,64.80
2018-08-23T19:47:43.869Z,65.20
2018-08-23T19:50:13.051Z,65.10
2018-08-23T19:52:41.420Z,65.30
2018-08-23T19:55:10.522Z,65.30
2018-08-23T19:57:39.092Z,65.50
2018-08-23T20:00:09.037Z,65.60
2018-08-23T20:02:37.482Z,66.00
2018-08-23T20:05:06.028Z,66.60
2018-08-23T20:07:34.588Z,67.30
2018-08-23T20:10:03.004Z,67.20
2018-08-23T20:12:31.509Z,67.30
2018-08-23T20:14:59.867Z,67.50
2018-08-23T20:17:28.284Z,67.60
2018-08-23T20:19:56.713Z,67.60
2018-08-23T20:22:25.140Z,68.00
2018-08-23T20:24:53.594Z,68.40
2018-08-23T20:27:22.008Z,68.10
2018-08-23T20:29:50.418Z,68.30
2018-08-23T20:32:18.860Z,68.20
2018-08-23T20:34:47.271Z,68.20
2018-08-23T20:37:15.836Z,67.90
2018-08-23T20:39:44.298Z,67.70
2018-08-23T20:42:12.728Z,67.50
2018-08-23T20:44:41.119Z,67.40
2018-08-23T20:47:09.604Z,67.30
2018-08-23T20:49:38.014Z,67.20
2018-08-23T20:52:06.431Z,67.00
2018-08-23T20:54:34.899Z,67.00
2018-08-23T20:57:03.342Z,67.00
2018-08-23T20:59:31.735Z,66.80
2018-08-23T21:02:00.147Z,67.00
2018-08-23T21:04:28.562Z,67.00
2018-08-23T21:06:56.966Z,67.10
2018-08-23T21:09:25.383Z,67.20
2018-08-23T21:11:53.788Z,67.20
2018-08-23T21:14:22.235Z,67.10
2018-08-23T21:16:50.667Z,67.00
2018-08-23T21:19:19.047Z,66.80
2018-08-23T21:21:47.469Z,66.70
2018-08-23T21:24:15.884Z,66.40
2018-08-23T21:26:44.286Z,66.50
2018-08-23T21:29:12.684Z,66.40
2018-08-23T21:31:41.083Z,66.30
2018-08-23T21:34:09.488Z,66.10
2018-08-23T21:36:37.899Z,66.80
2018-08-23T21:39:07.792Z,65.80
2018-08-23T21:41:36.208Z,65.70
2018-08-23T21:44:04.987Z,65.60
2018-08-23T21:46:33.503Z,65.60
2018-08-23T21:49:01.907Z,66.30
2018-08-23T21:51:30.319Z,65.60
2018-08-23T21:53:58.717Z,65.40
2018-08-23T21:56:27.134Z,65.30
2018-08-23T21:58:55.572Z,65.50
2018-08-23T22:01:24.015Z,65.50
2018-08-23T22:03:52.438Z,65.60
2018-08-23T22:06:20.826Z,65.60
2018-08-23T22:08:49.248Z,65.60
2018-08-23T22:11:17.654Z,65.60
2018-08-23T22:13:46.163Z,65.50
2018-08-23T22:16:14.612Z,65.30
2018-08-23T22:18:43.021Z,65.20
2018-08-23T22:21:11.415Z,65.30
2018-08-23T22:23:39.861Z,65.20
2018-08-23T22:26:08.280Z,65.30
2018-08-23T22:28:36.683Z,65.20
2018-08-23T22:31:05.097Z,65.20
2018-08-23T22:33:33.502Z,65.60
2018-08-23T22:36:01.939Z,65.30
2018-08-23T22:38:30.418Z,65.30
2018-08-23T22:40:58.964Z,65.30
2018-08-23T22:43:27.388Z,65.40
2018-08-23T22:45:55.815Z,65.20
2018-08-23T22:48:24.215Z,65.10
2018-08-23T22:50:52.621Z,65.20
2018-08-23T22:53:21.040Z,65.20
2018-08-23T22:55:49.440Z,65.20
2018-08-23T22:58:17.856Z,65.00
2018-08-23T23:00:46.281Z,65.00
2018-08-23T23:03:19.893Z,64.90
2018-08-23T23:05:48.351Z,64.60
2018-08-23T23:08:16.763Z,64.40
2018-08-23T23:10:45.164Z,64.10
2018-08-23T23:13:13.879Z,63.90
2018-08-23T23:15:42.272Z,63.60
2018-08-23T23:18:10.688Z,63.40
2018-08-23T23:20:40.072Z,63.10
2018-08-23T23:23:08.483Z,63.00
2018-08-23T23:25:36.887Z,62.80
2018-08-23T23:28:05.359Z,62.90
2018-08-23T23:30:33.763Z,62.80
2018-08-23T23:33:02.168Z,62.70
2018-08-23T23:35:30.599Z,63.30
2018-08-23T23:37:59.037Z,62.40
2018-08-23T23:40:27.423Z,62.40
2018-08-23T23:42:59.739Z,62.20
2018-08-23T23:45:28.143Z,62.00
2018-08-23T23:47:56.627Z,61.90
2018-08-23T23:50:25.021Z,61.90
2018-08-23T23:52:53.461Z,61.80
2018-08-23T23:55:21.863Z,61.80
2018-08-23T23:57:50.255Z,61.40
